KCKP

Cherokee County Regional Airport

Cherokee, Iowa, USA
METAR KCKP 172215Z AUTO 31006KT 10SM CLR 27/20 A3008 RMK AO2 T02730197
Observed Flight Rules
Aug-17 @ 22:15 UTC (22 minutes ago) Visual Flight Rules
Wind Visibility Clouds
310° at 6 knots 10 miles
  • Clear skies
Temperatures Readings
Current 27°C / 81°F
Dewpoint 20°C / 68°F
Humidity 66%
Altimeter 30.08" Hg
Pressure 1019 hPa
Elevation 374
METAR KCKP 172215Z AUTO 31006KT 10SM CLR 27/20 A3008 RMK AO2 T02730197
Observed Flight Rules
Aug-17 @ 22:15 UTC
(22 minutes ago)
VFR
Wind Visibility
310° at 6 knots 10 miles
Clouds
  • Clear skies
Temperature Dewpoint
27°C / 81°F 20°C / 68°F
Humidity Altimeter Pressure
66% 30.08" Hg 1019 hPa